Terminal Aerodrome Forecast
Issued by NWS Charleston, WV

Current Version | Previous Version | Graphics & Text | Print | Product List | Glossary On
Versions: 1 2 3 4 5 6 7 8 9 10 11 12 13 14 15 16 17 18 19 20 21 22 23 24
761
FTUS41 KRLX 241739
TAFEKN
TAF
KEKN 241739Z 2418/2518 32007KT P6SM BKN040
     FM250000 35004KT P6SM BKN035
     FM250400 36003KT P6SM BKN020
     FM250800 00000KT 4SM BR BKN015
     FM251100 00000KT 3SM BR BKN008
     FM251300 00000KT 5SM BR BKN015
     FM251400 35004KT P6SM SCT020=

USA.gov is the U.S. government's official web portal to all federal, state and local government web resources and services.